Time;durP1;ratioP1;P1;durP2;ratioP2;P2;SDS_P1;SDS_P2;PMS_P1;PMS_P2;Temp;Humidity;BMP_temperature;BMP_pressure;BME280_temperature;BME280_humidity;BME280_pressure;Samples;Min_cycle;Max_cycle;Signal;HPM_P1;HPM_P2
2022/07/22 00:00:40;;;;;;;7.77;7.13;;;19.50;99.90;;;;;;4925584;28;20194;-88
2022/07/22 00:03:05;;;;;;;9.07;8.30;;;18.80;99.90;;;;;;4924307;28;20196;-88
2022/07/22 00:05:34;;;;;;;8.80;8.10;;;18.80;99.90;;;;;;4921585;28;20193;-88
2022/07/22 00:07:59;;;;;;;8.50;7.90;;;18.60;99.90;;;;;;4929736;28;20194;-88
2022/07/22 00:10:25;;;;;;;8.83;8.17;;;18.80;99.90;;;;;;4928284;28;20835;-88
2022/07/22 00:12:52;;;;;;;9.10;8.07;;;19.30;99.90;;;;;;4925527;28;20203;-88
2022/07/22 00:15:18;;;;;;;9.03;8.30;;;18.60;99.90;;;;;;4931639;28;20537;-89
2022/07/22 00:17:43;;;;;;;8.90;8.30;;;18.50;99.90;;;;;;4951092;28;20486;-87
2022/07/22 00:20:10;;;;;;;9.30;8.40;;;18.90;99.90;;;;;;4924295;28;20477;-88
2022/07/22 00:22:36;;;;;;;8.77;7.83;;;18.60;99.90;;;;;;4918605;28;20221;-88
2022/07/22 00:25:04;;;;;;;11.90;8.37;;;18.50;99.90;;;;;;4927405;28;20541;-89
2022/07/22 00:27:30;;;;;;;9.17;8.30;;;18.50;99.90;;;;;;4908855;28;20202;-89
2022/07/22 00:29:57;;;;;;;9.10;8.30;;;18.40;99.90;;;;;;4923288;28;20454;-89
2022/07/22 00:32:27;;;;;;;9.43;8.73;;;18.40;99.90;;;;;;4917699;28;20715;-89
2022/07/22 00:34:53;;;;;;;10.07;9.13;;;18.30;99.90;;;;;;4908372;28;20546;-89
2022/07/22 00:37:18;;;;;;;11.10;8.70;;;18.20;99.90;;;;;;4929141;28;21005;-89
2022/07/22 00:39:47;;;;;;;8.70;8.00;;;18.80;99.90;;;;;;4926538;28;20194;-89
2022/07/22 00:42:14;;;;;;;9.03;8.33;;;18.90;99.90;;;;;;4931644;28;20191;-89
2022/07/22 00:44:42;;;;;;;9.00;8.40;;;18.30;99.90;;;;;;4927658;28;20527;-89
2022/07/22 00:47:07;;;;;;;9.83;9.10;;;18.40;99.90;;;;;;4938497;28;20442;-88
2022/07/22 00:49:35;;;;;;;9.80;8.87;;;18.30;99.90;;;;;;4923742;28;20454;-89
2022/07/22 00:52:02;;;;;;;10.57;8.97;;;18.20;99.90;;;;;;4927016;28;20230;-90
2022/07/22 00:54:31;;;;;;;8.70;7.83;;;19.10;99.90;;;;;;4924512;28;20450;-90
2022/07/22 00:57:01;;;;;;;9.97;9.10;;;17.90;99.90;;;;;;4922899;28;20532;-89
2022/07/22 00:59:26;;;;;;;9.97;8.97;;;18.10;99.90;;;;;;4944928;28;22060;-88
2022/07/22 01:01:52;;;;;;;8.97;8.27;;;18.00;99.90;;;;;;4924610;28;20446;-89
2022/07/22 01:04:18;;;;;;;9.93;9.03;;;18.00;99.90;;;;;;4927077;28;20427;-89
2022/07/22 01:06:44;;;;;;;15.70;9.10;;;17.90;99.90;;;;;;4926663;28;21341;-89
2022/07/22 01:09:11;;;;;;;9.60;8.63;;;18.00;99.90;;;;;;4935470;28;20443;-89
2022/07/22 01:11:37;;;;;;;10.27;8.53;;;18.00;99.90;;;;;;4930322;28;20521;-89
2022/07/22 01:14:09;;;;;;;9.70;8.80;;;18.10;99.90;;;;;;4935722;28;20439;-89
2022/07/22 01:16:36;;;;;;;10.20;8.83;;;18.00;99.90;;;;;;4935609;28;20179;-88
2022/07/22 01:19:05;;;;;;;9.70;8.80;;;18.00;99.90;;;;;;4916120;28;20442;-88
2022/07/22 01:21:34;;;;;;;9.33;8.43;;;17.90;99.90;;;;;;4925404;28;20481;-89
2022/07/22 01:24:15;;;;;;;10.83;9.10;;;17.60;99.90;;;;;;4928492;28;20442;-89
2022/07/22 01:26:44;;;;;;;9.73;8.80;;;17.70;99.90;;;;;;4927341;28;20547;-89
2022/07/22 01:29:10;;;;;;;9.57;8.73;;;17.80;99.90;;;;;;4932377;28;20852;-88
2022/07/22 01:31:36;;;;;;;9.80;9.00;;;17.50;99.90;;;;;;4936815;28;20486;-88
2022/07/22 01:34:03;;;;;;;10.17;9.23;;;17.60;99.90;;;;;;4921914;28;20207;-89
2022/07/22 01:36:30;;;;;;;10.10;9.20;;;17.70;99.90;;;;;;4925875;28;20199;-89
2022/07/22 01:39:01;;;;;;;9.93;9.03;;;17.80;99.90;;;;;;4897499;28;20446;-90
2022/07/22 01:41:27;;;;;;;9.53;8.63;;;17.90;99.90;;;;;;4925453;28;20460;-88
2022/07/22 01:43:53;;;;;;;9.47;8.67;;;18.00;99.90;;;;;;4919678;28;20949;-89
2022/07/22 01:46:19;;;;;;;10.30;9.50;;;17.80;99.90;;;;;;4926260;28;20230;-88
2022/07/22 01:48:45;;;;;;;9.27;8.47;;;17.90;99.90;;;;;;4923514;28;20545;-89
2022/07/22 01:51:10;;;;;;;11.10;9.23;;;17.70;99.90;;;;;;4926838;28;20219;-90
2022/07/22 01:53:56;;;;;;;12.03;9.57;;;17.60;99.90;;;;;;4922003;28;20434;-90
2022/07/22 01:56:25;;;;;;;9.80;9.00;;;18.00;99.90;;;;;;4924230;28;20458;-90
2022/07/22 01:58:53;;;;;;;9.33;8.63;;;17.50;99.90;;;;;;4905607;28;20483;-89
2022/07/22 02:01:31;;;;;;;11.53;10.43;;;19.10;99.90;;;;;;4907776;28;20462;-89
2022/07/22 02:03:57;;;;;;;10.50;9.60;;;18.40;99.90;;;;;;4924741;28;20442;-89
2022/07/22 02:06:22;;;;;;;10.50;9.60;;;18.00;99.90;;;;;;4918454;28;20467;-89
2022/07/22 02:08:52;;;;;;;11.33;10.33;;;19.30;99.90;;;;;;4924915;28;20679;-88
2022/07/22 02:11:21;;;;;;;10.57;9.77;;;18.70;99.90;;;;;;4926358;28;20215;-90
2022/07/22 02:13:58;;;;;;;10.10;9.10;;;18.70;99.90;;;;;;4923973;28;20461;-90
2022/07/22 02:16:36;;;;;;;10.67;9.77;;;18.30;99.90;;;;;;4928916;28;20572;-90
2022/07/22 02:19:03;;;;;;;11.53;10.53;;;18.50;99.90;;;;;;4925527;28;21173;-90
2022/07/22 02:21:29;;;;;;;11.07;9.97;;;18.30;99.90;;;;;;4907681;28;20198;-89
2022/07/22 02:23:57;;;;;;;10.87;9.93;;;18.00;99.90;;;;;;4929402;28;20443;-90
2022/07/22 02:26:25;;;;;;;10.50;9.63;;;18.00;99.90;;;;;;4924333;28;20203;-90
2022/07/22 02:28:57;;;;;;;11.23;10.07;;;17.90;99.90;;;;;;4954677;28;20431;-89
2022/07/22 02:31:36;;;;;;;11.30;9.20;;;17.60;99.90;;;;;;4929744;28;20226;-90
2022/07/22 02:34:01;;;;;;;10.37;9.57;;;17.40;99.90;;;;;;4910817;28;20529;-89
2022/07/22 02:36:27;;;;;;;9.60;8.70;;;17.80;99.90;;;;;;4923521;28;20457;-90
2022/07/22 02:38:53;;;;;;;10.67;9.60;;;17.60;99.90;;;;;;4927521;28;20179;-90
2022/07/22 02:41:19;;;;;;;13.40;10.60;;;17.50;99.90;;;;;;4919693;28;20629;-89
2022/07/22 02:43:44;;;;;;;10.43;9.50;;;17.40;99.90;;;;;;4923018;28;20558;-89
2022/07/22 02:46:14;;;;;;;10.33;9.00;;;16.60;99.90;;;;;;4919540;28;20769;-90
2022/07/22 02:48:41;;;;;;;10.20;9.40;;;17.20;99.90;;;;;;4928181;28;20186;-90
2022/07/22 02:51:13;;;;;;;11.57;9.13;;;17.20;99.90;;;;;;4908215;28;20495;-90
2022/07/22 02:53:43;;;;;;;10.43;9.30;;;17.20;99.90;;;;;;4923704;28;20450;-89
2022/07/22 02:56:09;;;;;;;9.70;8.70;;;17.20;99.90;;;;;;4935255;28;20449;-89
2022/07/22 02:58:54;;;;;;;11.00;10.10;;;17.50;99.90;;;;;;4922464;28;20445;-90
2022/07/22 03:01:20;;;;;;;10.70;9.73;;;17.40;99.90;;;;;;4926273;28;20453;-89
2022/07/22 03:03:46;;;;;;;11.13;9.97;;;17.70;99.90;;;;;;4936271;28;20461;-89
2022/07/22 03:06:12;;;;;;;10.03;9.10;;;16.90;99.90;;;;;;4924002;28;20520;-90
2022/07/22 03:08:39;;;;;;;10.13;9.20;;;16.90;99.90;;;;;;4952521;28;20855;-89
2022/07/22 03:11:29;;;;;;;10.10;9.20;;;17.10;99.90;;;;;;4911614;28;20491;-89
2022/07/22 03:13:55;;;;;;;9.30;8.50;;;17.20;99.90;;;;;;4920165;28;20449;-88
2022/07/22 03:16:21;;;;;;;11.10;10.00;;;17.70;99.90;;;;;;4939395;28;20460;-89
2022/07/22 03:18:48;;;;;;;10.83;9.77;;;16.60;99.90;;;;;;4932718;28;20446;-89
2022/07/22 03:21:14;;;;;;;10.33;9.27;;;16.80;99.90;;;;;;4927616;28;20710;-88
2022/07/22 03:23:40;;;;;;;9.60;8.63;;;16.90;99.90;;;;;;4929327;28;20466;-89
2022/07/22 03:26:06;;;;;;;14.13;8.93;;;16.90;99.90;;;;;;4931783;28;20592;-89
2022/07/22 03:28:31;;;;;;;10.63;9.63;;;17.90;99.90;;;;;;4928704;28;20335;-88
2022/07/22 03:30:57;;;;;;;11.17;10.20;;;17.60;99.90;;;;;;4922290;28;20604;-89
2022/07/22 03:33:25;;;;;;;10.83;9.93;;;17.30;99.90;;;;;;4935204;28;20957;-89
2022/07/22 03:35:52;;;;;;;11.43;10.20;;;17.20;99.90;;;;;;4925549;28;20306;-88
2022/07/22 03:38:26;;;;;;;11.30;10.30;;;17.50;99.90;;;;;;4924363;28;20538;-88
2022/07/22 03:41:18;;;;;;;10.93;9.93;;;17.90;99.90;;;;;;4922111;28;20194;-88
2022/07/22 03:43:43;;;;;;;12.50;10.67;;;17.50;99.90;;;;;;4927084;28;21060;-88
2022/07/22 03:46:15;;;;;;;11.80;9.87;;;18.10;99.90;;;;;;4925389;28;20533;-89
2022/07/22 03:48:41;;;;;;;11.30;10.40;;;17.50;99.90;;;;;;4930371;28;20510;-88
2022/07/22 03:51:06;;;;;;;11.70;10.60;;;17.60;99.90;;;;;;4926616;28;20483;-88
2022/07/22 03:53:35;;;;;;;12.33;10.13;;;18.50;99.90;;;;;;4922695;28;20285;-88
2022/07/22 03:56:04;;;;;;;11.10;9.83;;;17.70;99.90;;;;;;4924608;28;20190;-88
2022/07/22 03:58:30;;;;;;;10.60;9.47;;;17.10;99.90;;;;;;4922643;28;20440;-88
2022/07/22 04:00:57;;;;;;;12.00;10.77;;;18.00;99.90;;;;;;4923985;28;20467;-88
2022/07/22 04:03:22;;;;;;;10.60;9.70;;;17.30;99.90;;;;;;4912946;28;20209;-87
2022/07/22 04:05:48;;;;;;;11.17;10.00;;;17.50;99.90;;;;;;4930560;28;20455;-87
2022/07/22 04:08:15;;;;;;;11.37;10.33;;;18.30;99.90;;;;;;4960418;28;20802;-87
2022/07/22 04:10:41;;;;;;;11.57;10.40;;;17.90;99.90;;;;;;4926291;28;20305;-88
2022/07/22 04:13:13;;;;;;;10.83;9.70;;;17.20;99.90;;;;;;4927947;28;20578;-88
2022/07/22 04:15:40;;;;;;;11.10;10.07;;;17.40;99.90;;;;;;4942737;28;20230;-86
2022/07/22 04:18:23;;;;;;;;;;;;;;;;;;;;;
2022/07/22 04:20:49;;;;;;;11.70;10.70;;;17.60;99.90;;;;;;4935557;28;20785;-88
2022/07/22 04:23:16;;;;;;;13.20;11.20;;;18.20;99.90;;;;;;4922758;28;20456;-88
2022/07/22 04:25:42;;;;;;;11.83;10.83;;;17.40;99.90;;;;;;4920398;28;20506;-86
2022/07/22 04:28:11;;;;;;;11.03;10.13;;;17.10;99.90;;;;;;4923649;28;20447;-88
2022/07/22 04:30:36;;;;;;;10.93;9.93;;;18.20;99.90;;;;;;4922849;28;21245;-87
2022/07/22 04:33:06;;;;;;;11.13;9.77;;;17.30;99.90;;;;;;4920395;28;20443;-87
2022/07/22 04:35:34;;;;;;;12.40;9.80;;;17.30;99.90;;;;;;4932000;28;20283;-87
2022/07/22 04:38:00;;;;;;;19.73;10.47;;;17.40;99.90;;;;;;4923320;28;20450;-87
2022/07/22 04:40:25;;;;;;;10.87;9.77;;;17.70;99.90;;;;;;4923264;28;20447;-87
2022/07/22 04:42:51;;;;;;;13.20;9.90;;;17.60;99.90;;;;;;4917692;28;21263;-86
2022/07/22 04:45:19;;;;;;;10.90;9.77;;;17.90;99.90;;;;;;4922590;28;20725;-88
2022/07/22 04:47:45;;;;;;;10.83;9.77;;;17.30;99.90;;;;;;4942331;28;20680;-87
2022/07/22 04:50:10;;;;;;;12.17;11.00;;;17.30;99.90;;;;;;4931026;28;20439;-89
2022/07/22 04:52:42;;;;;;;12.27;11.13;;;17.40;99.90;;;;;;4930293;28;20202;-90
2022/07/22 04:55:15;;;;;;;10.87;9.87;;;17.60;99.90;;;;;;4908982;28;20184;-90
2022/07/22 04:58:25;;;;;;;11.30;10.17;;;18.30;99.90;;;;;;4967873;28;20557;-90
2022/07/22 05:01:00;;;;;;;12.43;11.20;;;17.80;99.90;;;;;;4927689;28;20497;-89
2022/07/22 05:03:31;;;;;;;11.43;10.10;;;18.10;99.90;;;;;;4925573;28;20451;-89
2022/07/22 05:05:58;;;;;;;11.03;9.93;;;17.80;99.90;;;;;;4934505;28;20513;-89
2022/07/22 05:08:24;;;;;;;11.80;10.30;;;18.00;99.90;;;;;;4930260;28;20457;-88
2022/07/22 05:10:50;;;;;;;10.60;9.60;;;17.80;99.90;;;;;;4918159;28;20474;-89
2022/07/22 05:13:16;;;;;;;13.00;10.60;;;18.00;99.90;;;;;;4921402;28;21184;-88
2022/07/22 05:15:41;;;;;;;11.83;10.93;;;17.50;99.90;;;;;;4934958;28;20199;-87
2022/07/22 05:18:07;;;;;;;10.63;9.83;;;18.10;99.90;;;;;;4925507;28;20438;-88
2022/07/22 05:20:32;;;;;;;12.43;11.13;;;18.30;99.90;;;;;;4927416;28;20182;-88
2022/07/22 05:22:59;;;;;;;11.87;10.67;;;19.10;99.90;;;;;;4931208;28;20195;-89
2022/07/22 05:25:25;;;;;;;11.90;10.87;;;18.40;99.90;;;;;;4929445;28;20187;-89
2022/07/22 05:28:11;;;;;;;12.13;11.10;;;18.50;99.90;;;;;;4905720;29;20451;-88
2022/07/22 05:31:41;;;;;;;11.47;10.10;;;18.10;99.90;;;;;;4965785;28;20297;-89
2022/07/22 05:34:19;;;;;;;11.80;10.67;;;18.60;99.90;;;;;;4919445;28;20516;-90
2022/07/22 05:36:44;;;;;;;12.47;11.27;;;19.00;99.90;;;;;;4927472;28;20462;-89
2022/07/22 05:39:11;;;;;;;13.10;11.80;;;18.40;99.90;;;;;;4922315;28;20197;-88
2022/07/22 05:41:39;;;;;;;13.90;12.60;;;19.10;99.90;;;;;;4934832;28;20186;-89
2022/07/22 05:44:05;;;;;;;15.73;14.43;;;19.00;99.90;;;;;;4935702;28;20482;-91
2022/07/22 05:46:40;;;;;;;15.80;14.33;;;19.40;99.90;;;;;;4938777;28;20473;-92
2022/07/22 05:49:05;;;;;;;16.70;15.20;;;19.20;99.90;;;;;;4896708;28;20206;-91
2022/07/22 05:51:31;;;;;;;15.53;14.03;;;19.50;99.90;;;;;;4926652;28;20487;-90
2022/07/22 05:53:57;;;;;;;17.27;15.47;;;19.30;99.90;;;;;;4938857;28;20186;-91
2022/07/22 05:56:26;;;;;;;17.37;15.77;;;19.40;99.90;;;;;;4942712;28;20194;-91
2022/07/22 05:58:52;;;;;;;18.47;16.60;;;20.00;99.90;;;;;;4929735;28;20187;-91
2022/07/22 06:02:01;;;;;;;17.23;15.50;;;19.70;99.90;;;;;;4927260;28;20455;-94
2022/07/22 06:04:28;;;;;;;15.50;14.20;;;19.50;99.90;;;;;;4943386;28;20190;-94
2022/07/22 06:07:14;;;;;;;17.37;15.80;;;19.20;99.90;;;;;;4935307;28;20435;-95
2022/07/22 06:09:46;;;;;;;15.33;13.93;;;19.40;99.90;;;;;;4935990;28;20197;-92
2022/07/22 06:12:11;;;;;;;17.23;15.57;;;19.40;99.90;;;;;;4925390;28;20485;-94
2022/07/22 06:14:57;;;;;;;18.00;16.33;;;20.50;99.90;;;;;;4939145;28;20450;-92
2022/07/22 06:17:26;;;;;;;18.57;16.80;;;19.80;99.90;;;;;;4928389;28;20438;-93
2022/07/22 06:19:52;;;;;;;18.30;16.77;;;19.10;99.90;;;;;;4933663;28;20450;-91
2022/07/22 06:22:18;;;;;;;17.03;15.63;;;19.30;99.90;;;;;;4925058;28;20441;-92
2022/07/22 06:24:54;;;;;;;16.87;15.47;;;19.40;99.90;;;;;;4927009;28;20552;-91
2022/07/22 06:27:20;;;;;;;19.10;17.40;;;19.90;99.90;;;;;;4925017;28;20723;-92
2022/07/22 06:29:51;;;;;;;17.20;15.73;;;21.30;99.90;;;;;;4932926;28;20450;-92
2022/07/22 06:32:25;;;;;;;17.47;15.87;;;20.00;99.90;;;;;;4922550;28;20708;-93
2022/07/22 06:34:54;;;;;;;16.83;15.23;;;19.60;99.90;;;;;;4932441;28;20434;-94
2022/07/22 06:37:20;;;;;;;16.70;15.00;;;19.60;99.90;;;;;;4930782;28;21041;-93
2022/07/22 06:39:47;;;;;;;15.80;14.30;;;21.10;99.90;;;;;;4932464;28;20438;-92
2022/07/22 06:42:14;;;;;;;17.00;15.40;;;19.80;99.90;;;;;;4939501;28;20634;-88
2022/07/22 06:44:40;;;;;;;16.30;14.80;;;19.60;99.90;;;;;;4930896;28;21011;-87
2022/07/22 06:47:05;;;;;;;16.47;15.07;;;19.70;99.90;;;;;;4921270;28;20953;-87
2022/07/22 06:49:31;;;;;;;16.23;14.80;;;19.70;99.90;;;;;;4925105;28;20457;-85
2022/07/22 06:52:22;;;;;;;15.20;13.90;;;19.90;99.90;;;;;;4928906;28;21311;-89
2022/07/22 06:54:47;;;;;;;14.57;13.33;;;19.90;99.90;;;;;;4937662;28;20179;-88
2022/07/22 06:57:13;;;;;;;15.03;13.73;;;20.20;99.90;;;;;;4944788;28;20530;-89
2022/07/22 06:59:38;;;;;;;14.20;13.00;;;20.10;99.90;;;;;;4928054;28;20217;-89
2022/07/22 07:02:04;;;;;;;14.83;13.53;;;20.30;99.90;;;;;;4932799;28;20199;-89
2022/07/22 07:04:29;;;;;;;14.27;13.07;;;20.20;99.90;;;;;;4934251;28;20191;-89
2022/07/22 07:06:55;;;;;;;13.67;12.57;;;20.50;99.90;;;;;;4928952;28;20697;-88
2022/07/22 07:09:20;;;;;;;13.90;12.63;;;20.50;99.90;;;;;;4927647;28;20184;-89
2022/07/22 07:11:46;;;;;;;13.17;11.80;;;20.70;99.90;;;;;;4967370;28;20214;-89
2022/07/22 07:14:12;;;;;;;13.97;12.50;;;20.80;99.90;;;;;;4927720;28;20273;-90
2022/07/22 07:16:37;;;;;;;15.07;13.67;;;21.00;99.90;;;;;;4928389;28;20274;-89
2022/07/22 07:19:03;;;;;;;14.53;13.27;;;21.10;99.90;;;;;;4931575;28;20258;-90
2022/07/22 07:21:29;;;;;;;13.63;12.53;;;21.10;99.90;;;;;;4931848;28;20191;-90
2022/07/22 07:23:58;;;;;;;13.60;12.47;;;21.10;99.90;;;;;;4928773;28;20445;-89
2022/07/22 07:26:23;;;;;;;13.10;11.73;;;21.10;99.90;;;;;;4930751;28;20175;-89
2022/07/22 07:28:49;;;;;;;14.00;12.70;;;21.20;99.90;;;;;;4931323;28;20468;-89
2022/07/22 07:31:14;;;;;;;14.70;13.20;;;21.40;99.90;;;;;;4939440;28;20261;-89
2022/07/22 07:33:40;;;;;;;13.50;12.37;;;21.40;99.90;;;;;;4928489;28;20195;-89
2022/07/22 07:36:08;;;;;;;12.60;11.60;;;21.50;99.90;;;;;;4928979;28;20307;-89
2022/07/22 07:38:34;;;;;;;12.57;11.57;;;21.70;99.90;;;;;;4929706;28;20582;-89
2022/07/22 07:40:59;;;;;;;13.03;12.00;;;21.80;99.90;;;;;;4934930;28;20191;-89
2022/07/22 07:43:25;;;;;;;12.40;11.40;;;22.10;99.90;;;;;;4942681;28;20217;-89
2022/07/22 07:45:51;;;;;;;13.27;12.17;;;22.20;99.90;;;;;;4928837;28;20191;-89
2022/07/22 07:48:16;;;;;;;12.80;11.53;;;21.90;99.90;;;;;;4939910;28;20819;-89
2022/07/22 07:50:42;;;;;;;13.03;11.93;;;21.90;99.90;;;;;;4929480;28;20216;-89
2022/07/22 07:53:07;;;;;;;12.80;11.70;;;21.90;99.90;;;;;;4929382;28;20198;-89
2022/07/22 07:55:36;;;;;;;13.30;12.10;;;22.20;99.90;;;;;;4933938;28;20237;-89
2022/07/22 07:58:02;;;;;;;12.30;11.20;;;22.30;99.90;;;;;;4934483;28;20191;-90
2022/07/22 08:00:28;;;;;;;13.10;12.00;;;22.30;99.90;;;;;;4929601;28;21072;-89
2022/07/22 08:02:56;;;;;;;12.13;11.13;;;22.40;99.90;;;;;;4929896;28;20191;-90
2022/07/22 08:05:25;;;;;;;10.70;9.77;;;22.40;99.90;;;;;;4928136;28;20454;-89
2022/07/22 08:07:51;;;;;;;11.50;10.57;;;22.80;99.90;;;;;;4929798;28;20750;-88
2022/07/22 08:10:17;;;;;;;12.73;11.73;;;22.80;99.90;;;;;;4946067;28;20487;-89
2022/07/22 08:12:43;;;;;;;11.80;10.90;;;22.80;99.90;;;;;;4964244;28;20461;-89
2022/07/22 08:15:10;;;;;;;13.47;9.93;;;23.00;99.90;;;;;;4930819;28;20501;-89
2022/07/22 08:17:36;;;;;;;12.50;11.30;;;23.10;99.90;;;;;;4929726;28;20190;-89
2022/07/22 08:20:04;;;;;;;11.63;10.60;;;23.60;99.90;;;;;;4932100;28;20455;-89
2022/07/22 08:22:30;;;;;;;12.33;11.33;;;23.30;99.90;;;;;;4932635;28;21055;-88
2022/07/22 08:24:55;;;;;;;11.27;10.37;;;23.40;99.90;;;;;;4930600;28;20529;-89
2022/07/22 08:27:21;;;;;;;11.90;11.00;;;23.50;99.90;;;;;;4931822;28;20473;-89
2022/07/22 08:29:47;;;;;;;11.77;10.87;;;23.50;99.90;;;;;;4942451;28;20609;-89
2022/07/22 08:32:13;;;;;;;11.77;10.80;;;23.50;99.90;;;;;;4929779;28;20237;-90
2022/07/22 08:34:38;;;;;;;11.57;10.57;;;23.50;99.90;;;;;;4929127;28;20573;-89
2022/07/22 08:37:04;;;;;;;11.10;10.30;;;23.50;99.90;;;;;;4929766;28;20303;-89
2022/07/22 08:39:29;;;;;;;11.17;10.30;;;23.60;99.90;;;;;;4930430;28;20197;-89
2022/07/22 08:41:56;;;;;;;11.17;10.13;;;23.90;99.90;;;;;;4928817;28;20324;-88
2022/07/22 08:44:22;;;;;;;10.67;9.80;;;24.10;99.90;;;;;;4942398;28;20671;-89
2022/07/22 08:46:48;;;;;;;11.23;10.43;;;24.20;99.90;;;;;;4929182;28;20450;-89
2022/07/22 08:49:17;;;;;;;10.37;9.53;;;24.50;99.90;;;;;;4929576;28;20235;-89
2022/07/22 08:51:42;;;;;;;10.80;9.90;;;24.90;99.90;;;;;;4929211;28;20769;-89
2022/07/22 08:54:08;;;;;;;11.10;10.30;;;24.40;99.90;;;;;;4927280;28;20530;-89
2022/07/22 08:56:34;;;;;;;11.50;10.60;;;24.40;99.90;;;;;;4927708;28;20184;-89
2022/07/22 08:59:00;;;;;;;10.60;9.80;;;24.70;99.90;;;;;;4928980;28;20191;-88
2022/07/22 09:01:27;;;;;;;10.60;9.80;;;24.90;99.90;;;;;;4930175;28;20343;-90
2022/07/22 09:03:56;;;;;;;10.53;9.67;;;24.80;99.90;;;;;;4928815;28;20210;-90
2022/07/22 09:06:25;;;;;;;10.53;9.73;;;25.10;99.90;;;;;;4931517;28;20457;-89
2022/07/22 09:08:52;;;;;;;10.53;9.73;;;25.00;99.90;;;;;;4928768;28;21029;-90
2022/07/22 09:11:19;;;;;;;10.97;10.07;;;25.50;99.90;;;;;;4926950;28;20570;-87
2022/07/22 09:13:46;;;;;;;10.50;9.50;;;25.40;99.90;;;;;;4947394;28;20450;-89
2022/07/22 09:16:13;;;;;;;10.43;9.73;;;25.50;99.90;;;;;;4934721;28;20471;-90
2022/07/22 09:18:54;;;;;;;11.07;10.30;;;25.60;99.90;;;;;;4928920;28;20535;-89
2022/07/22 09:21:20;;;;;;;10.70;9.87;;;25.80;99.90;;;;;;4925418;28;20823;-90
2022/07/22 09:23:46;;;;;;;10.53;9.63;;;25.90;99.90;;;;;;4929008;28;20442;-90
2022/07/22 09:26:33;;;;;;;10.33;9.57;;;25.90;99.90;;;;;;4932258;28;20453;-90
2022/07/22 09:28:59;;;;;;;9.80;8.93;;;25.80;99.90;;;;;;4931997;28;20215;-90
2022/07/22 09:31:29;;;;;;;10.80;10.00;;;25.90;99.80;;;;;;4922939;28;20517;-90
2022/07/22 09:33:54;;;;;;;9.23;8.50;;;25.90;99.30;;;;;;4926898;28;20467;-90
2022/07/22 09:36:21;;;;;;;8.83;8.23;;;26.10;99.60;;;;;;4936408;28;20458;-90
2022/07/22 09:38:46;;;;;;;9.83;9.13;;;26.30;99.90;;;;;;4931907;28;20216;-90
2022/07/22 09:41:14;;;;;;;10.70;9.90;;;26.50;99.10;;;;;;4956998;28;20590;-90
2022/07/22 09:43:40;;;;;;;10.70;9.80;;;26.70;99.00;;;;;;4927794;28;20217;-90
2022/07/22 09:46:17;;;;;;;9.43;8.63;;;26.70;98.50;;;;;;4927341;28;20446;-91
2022/07/22 09:48:43;;;;;;;9.80;8.90;;;26.90;97.60;;;;;;4963943;28;21094;-90
2022/07/22 09:51:08;;;;;;;10.47;9.67;;;27.00;97.40;;;;;;4930353;28;20486;-91
2022/07/22 09:53:34;;;;;;;10.07;9.30;;;26.90;97.20;;;;;;4927680;28;20455;-90
2022/07/22 09:56:03;;;;;;;9.63;8.73;;;26.70;97.90;;;;;;4930866;28;20190;-90
2022/07/22 09:58:29;;;;;;;11.07;9.97;;;26.90;96.20;;;;;;4926017;28;20283;-90
2022/07/22 10:00:59;;;;;;;9.57;8.87;;;27.00;96.10;;;;;;4932416;28;20435;-90
2022/07/22 10:03:33;;;;;;;10.07;9.07;;;26.90;96.50;;;;;;4955544;28;20497;-90
2022/07/22 10:06:00;;;;;;;9.73;8.80;;;26.40;96.70;;;;;;4926908;28;20470;-90
2022/07/22 10:08:27;;;;;;;8.97;8.37;;;26.70;97.00;;;;;;4932200;28;20458;-90
2022/07/22 10:10:57;;;;;;;9.50;8.90;;;26.90;96.90;;;;;;4928296;28;20459;-90
2022/07/22 10:13:23;;;;;;;10.30;9.40;;;27.30;98.00;;;;;;4931068;28;20454;-90
2022/07/22 10:15:49;;;;;;;10.00;9.13;;;27.60;95.70;;;;;;4932811;28;20443;-91
2022/07/22 10:18:17;;;;;;;10.40;9.53;;;27.80;96.70;;;;;;4939235;28;20198;-90
2022/07/22 10:20:43;;;;;;;9.67;8.87;;;28.10;97.40;;;;;;4930372;28;20464;-89
2022/07/22 10:23:11;;;;;;;10.30;9.50;;;28.50;95.50;;;;;;4927563;28;21067;-91
2022/07/22 10:25:54;;;;;;;9.20;8.60;;;28.50;95.80;;;;;;4931125;28;20446;-90
2022/07/22 10:28:27;;;;;;;10.10;9.37;;;28.20;95.70;;;;;;4926041;28;20452;-87
2022/07/22 10:31:13;;;;;;;9.30;8.63;;;28.00;94.70;;;;;;4931706;28;21136;-90
2022/07/22 10:33:40;;;;;;;9.40;8.60;;;27.90;96.10;;;;;;4958383;28;20446;-90
2022/07/22 10:36:05;;;;;;;9.50;8.80;;;28.20;95.40;;;;;;4927660;28;20446;-91
2022/07/22 10:38:33;;;;;;;9.73;9.03;;;28.50;93.90;;;;;;4937281;28;20457;-91
2022/07/22 10:41:00;;;;;;;9.50;8.80;;;28.60;95.20;;;;;;4939006;28;20638;-88
2022/07/22 10:43:27;;;;;;;9.80;9.10;;;28.60;95.10;;;;;;4939211;28;20466;-88
2022/07/22 10:45:55;;;;;;;9.60;8.90;;;28.50;95.10;;;;;;4939462;28;20501;-89
2022/07/22 10:48:44;;;;;;;10.00;9.10;;;28.50;92.20;;;;;;4940883;28;20454;-88
2022/07/22 10:51:10;;;;;;;9.47;8.67;;;28.50;94.30;;;;;;4942186;28;20562;-90
2022/07/22 10:53:45;;;;;;;9.40;8.60;;;28.60;95.30;;;;;;4940811;28;20505;-89
2022/07/22 10:56:18;;;;;;;9.47;8.67;;;28.80;94.90;;;;;;4944083;28;20456;-89
2022/07/22 10:58:54;;;;;;;9.80;9.10;;;28.80;92.80;;;;;;4941428;28;20863;-88
2022/07/22 11:01:24;;;;;;;9.10;8.50;;;28.90;93.00;;;;;;4936541;28;20458;-89
2022/07/22 11:03:50;;;;;;;9.40;8.60;;;28.80;95.00;;;;;;4940065;28;20485;-88
2022/07/22 11:06:29;;;;;;;9.33;8.53;;;29.10;93.50;;;;;;4936394;28;20961;-89
2022/07/22 11:08:58;;;;;;;8.67;8.07;;;29.30;93.10;;;;;;4938781;28;20798;-89
2022/07/22 11:11:44;;;;;;;10.40;9.50;;;29.20;92.60;;;;;;4942385;28;20486;-89
2022/07/22 11:14:17;;;;;;;10.20;9.40;;;29.20;93.20;;;;;;4943862;28;20918;-88
2022/07/22 11:16:45;;;;;;;9.83;9.03;;;29.50;94.20;;;;;;4937993;28;20451;-88
2022/07/22 11:19:11;;;;;;;9.30;8.70;;;30.00;94.30;;;;;;4941138;28;20828;-89
2022/07/22 11:21:37;;;;;;;9.97;8.97;;;30.10;91.40;;;;;;4936094;28;20434;-89
2022/07/22 11:24:05;;;;;;;10.50;9.60;;;30.10;91.50;;;;;;4943135;28;20175;-89
2022/07/22 11:26:46;;;;;;;10.07;9.37;;;30.00;93.10;;;;;;4938456;28;20485;-89
2022/07/22 11:29:23;;;;;;;9.60;9.00;;;30.00;92.30;;;;;;4939023;28;21695;-88
2022/07/22 11:31:48;;;;;;;9.90;9.10;;;29.90;93.90;;;;;;4941766;28;20525;-89
2022/07/22 11:34:15;;;;;;;10.10;9.30;;;30.20;91.70;;;;;;4945933;28;20440;-91
2022/07/22 11:36:45;;;;;;;10.03;9.23;;;30.40;91.10;;;;;;4933752;28;20187;-87
2022/07/22 11:39:13;;;;;;;10.53;9.77;;;30.50;91.00;;;;;;4940108;28;20989;-89
2022/07/22 11:41:40;;;;;;;13.30;10.23;;;30.10;91.40;;;;;;4938021;28;20453;-89
2022/07/22 11:44:06;;;;;;;12.70;11.30;;;30.50;92.30;;;;;;4947659;28;20501;-88
2022/07/22 11:46:51;;;;;;;10.33;9.40;;;30.50;92.60;;;;;;4927405;28;21637;-89
2022/07/22 11:49:19;;;;;;;35.73;18.30;;;30.60;91.00;;;;;;4942117;28;20522;-88
2022/07/22 11:51:45;;;;;;;9.80;9.10;;;30.90;92.10;;;;;;4930302;28;20509;-89
2022/07/22 11:54:11;;;;;;;9.07;8.47;;;31.20;87.30;;;;;;4931283;28;20853;-89
2022/07/22 11:56:37;;;;;;;11.20;10.20;;;31.30;90.10;;;;;;4930859;28;20179;-90
2022/07/22 11:59:05;;;;;;;9.90;9.20;;;31.20;89.20;;;;;;4931416;28;20561;-89
2022/07/22 12:01:32;;;;;;;10.70;9.90;;;30.70;87.30;;;;;;4933982;28;20478;-89
2022/07/22 12:04:01;;;;;;;9.50;8.90;;;30.90;89.40;;;;;;4936759;28;20446;-89
2022/07/22 12:06:28;;;;;;;9.50;8.73;;;31.20;90.50;;;;;;4934294;28;20438;-89
2022/07/22 12:09:15;;;;;;;9.70;9.00;;;31.50;90.30;;;;;;4932197;28;20434;-89
2022/07/22 12:11:44;;;;;;;9.43;8.60;;;31.70;86.70;;;;;;4926955;28;21029;-89
2022/07/22 12:14:22;;;;;;;10.00;9.30;;;31.50;85.20;;;;;;4929925;28;21434;-90
2022/07/22 12:16:55;;;;;;;9.17;8.60;;;31.60;86.90;;;;;;4959994;28;20458;-89
2022/07/22 12:19:21;;;;;;;10.10;9.40;;;31.80;85.70;;;;;;4966156;28;20551;-89
2022/07/22 12:21:50;;;;;;;9.13;8.53;;;32.10;86.00;;;;;;4933690;28;20481;-89
2022/07/22 12:24:16;;;;;;;9.97;9.23;;;31.60;86.70;;;;;;4925275;28;20191;-89
2022/07/22 12:26:47;;;;;;;9.30;8.67;;;31.30;90.00;;;;;;4927621;28;20443;-89
2022/07/22 12:29:26;;;;;;;9.03;8.43;;;31.40;90.20;;;;;;4923391;28;21423;-89
2022/07/22 12:31:56;;;;;;;10.10;9.40;;;31.60;89.80;;;;;;4924256;28;20480;-89
2022/07/22 12:34:34;;;;;;;9.40;8.80;;;31.40;83.90;;;;;;4962868;28;20494;-88
2022/07/22 12:37:21;;;;;;;9.23;8.53;;;31.60;85.60;;;;;;4926636;28;21980;-89
2022/07/22 12:40:28;;;;;;;9.00;8.33;;;31.90;90.50;;;;;;4930229;28;20435;-89
2022/07/22 12:43:03;;;;;;;8.90;8.30;;;32.50;85.30;;;;;;4855781;29;20775;-89
2022/07/22 12:45:30;;;;;;;8.87;8.37;;;32.80;87.10;;;;;;4948585;28;20441;-89
2022/07/22 12:48:05;;;;;;;10.10;9.30;;;32.80;84.20;;;;;;4930243;28;20446;-90